createdAt,value
2023-04-08T00:01:01.030Z,24.27
2023-04-08T00:03:28.254Z,24.27
2023-04-08T00:05:55.314Z,24.38
2023-04-08T00:08:22.628Z,22.23
2023-04-08T00:10:49.544Z,21.58
2023-04-08T00:13:16.423Z,21.75
2023-04-08T00:15:43.270Z,21.17
2023-04-08T00:18:10.255Z,20.33
2023-04-08T00:20:37.322Z,22.58
2023-04-08T00:23:04.149Z,22.27
2023-04-08T00:25:31.755Z,20.50
2023-04-08T00:28:00.922Z,20.95
2023-04-08T00:30:28.275Z,21.70
2023-04-08T00:32:55.470Z,21.23
2023-04-08T00:35:22.526Z,20.67
2023-04-08T00:37:49.886Z,20.63
2023-04-08T00:40:16.790Z,21.23
2023-04-08T00:42:45.509Z,21.15
2023-04-08T00:45:13.092Z,20.88
2023-04-08T00:47:40.159Z,19.85
2023-04-08T00:50:10.980Z,21.02
2023-04-08T00:52:37.891Z,20.08
2023-04-08T00:55:05.364Z,19.88
2023-04-08T00:57:32.555Z,21.40
2023-04-08T00:59:59.766Z,20.98
2023-04-08T01:02:35.522Z,21.23
2023-04-08T01:05:03.625Z,20.60
2023-04-08T01:07:45.427Z,21.98
2023-04-08T01:10:27.047Z,20.42
2023-04-08T01:12:56.829Z,21.50
2023-04-08T01:15:26.416Z,21.95
2023-04-08T01:17:56.299Z,23.00
2023-04-08T01:20:24.948Z,22.27
2023-04-08T01:23:00.934Z,24.10
2023-04-08T01:25:32.512Z,22.83
2023-04-08T01:28:18.703Z,24.33
2023-04-08T01:30:47.495Z,22.52
2023-04-08T01:33:17.008Z,21.83
2023-04-08T01:35:45.065Z,22.52
2023-04-08T01:38:16.760Z,22.75
2023-04-08T01:40:44.549Z,23.10
2023-04-08T01:43:14.403Z,21.85
2023-04-08T01:45:42.572Z,23.05
2023-04-08T01:48:09.833Z,23.08
2023-04-08T01:50:41.639Z,23.83
2023-04-08T01:53:10.709Z,21.50
2023-04-08T01:55:41.194Z,22.52
2023-04-08T01:58:09.589Z,24.27
2023-04-08T02:00:37.122Z,24.20
2023-04-08T02:03:06.266Z,21.95
2023-04-08T02:05:34.476Z,20.83
2023-04-08T02:08:01.566Z,20.73
2023-04-08T02:10:28.523Z,21.23
2023-04-08T02:12:56.732Z,18.67
2023-04-08T02:15:23.672Z,17.70
2023-04-08T02:17:53.715Z,19.67
2023-04-08T02:20:33.367Z,21.30
2023-04-08T02:23:04.825Z,23.90
2023-04-08T02:25:35.494Z,25.38
2023-04-08T02:28:05.144Z,20.27
2023-04-08T02:30:33.248Z,22.88
2023-04-08T02:33:01.888Z,20.13
2023-04-08T02:35:29.328Z,22.23
2023-04-08T02:37:56.322Z,25.98
2023-04-08T02:40:24.316Z,24.48
2023-04-08T02:42:51.578Z,23.92
2023-04-08T02:45:19.215Z,22.48
2023-04-08T02:47:46.275Z,22.38
2023-04-08T02:50:13.265Z,23.10
2023-04-08T02:52:40.442Z,21.15
2023-04-08T02:55:10.031Z,21.27
2023-04-08T02:57:43.254Z,22.02
2023-04-08T03:00:10.679Z,23.48
2023-04-08T03:02:37.639Z,22.00
2023-04-08T03:05:05.783Z,24.05
2023-04-08T03:07:33.105Z,23.15
2023-04-08T03:10:00.597Z,25.17
2023-04-08T03:12:28.106Z,23.40
2023-04-08T03:14:55.053Z,24.38
2023-04-08T03:17:22.394Z,22.73
2023-04-08T03:19:49.271Z,27.58
2023-04-08T03:22:16.483Z,24.92
2023-04-08T03:24:43.264Z,22.98
2023-04-08T03:27:10.639Z,23.35
2023-04-08T03:29:40.047Z,23.42
2023-04-08T03:32:07.135Z,22.70
2023-04-08T03:34:37.112Z,24.88
2023-04-08T03:37:03.965Z,23.10
2023-04-08T03:39:31.344Z,21.55
2023-04-08T03:41:59.936Z,21.75
2023-04-08T03:44:27.535Z,22.55
2023-04-08T03:46:54.654Z,21.55
2023-04-08T03:49:21.637Z,20.05
2023-04-08T03:51:48.549Z,20.92
2023-04-08T03:54:15.755Z,19.70
2023-04-08T03:56:44.911Z,19.90
2023-04-08T03:59:11.801Z,19.40
2023-04-08T04:01:40.617Z,18.08
2023-04-08T04:04:08.950Z,17.65
2023-04-08T04:06:36.040Z,16.67
2023-04-08T04:09:03.039Z,16.13
2023-04-08T04:11:30.120Z,13.73
2023-04-08T04:13:57.000Z,13.40
2023-04-08T04:16:23.984Z,12.82
2023-04-08T04:18:53.028Z,13.45
2023-04-08T04:21:20.218Z,13.55
2023-04-08T04:23:47.056Z,13.20
2023-04-08T04:26:14.130Z,13.13
2023-04-08T04:28:41.563Z,12.63
2023-04-08T04:31:08.505Z,12.05
2023-04-08T04:33:35.348Z,12.63
2023-04-08T04:36:02.226Z,12.55
2023-04-08T04:38:29.238Z,13.07
2023-04-08T04:40:56.101Z,12.50
2023-04-08T04:43:22.906Z,13.10
2023-04-08T04:45:49.783Z,13.48
2023-04-08T04:48:16.629Z,12.93
2023-04-08T04:50:43.573Z,13.05
2023-04-08T04:53:10.427Z,12.43
2023-04-08T04:55:39.104Z,12.85
2023-04-08T04:58:06.736Z,12.13
2023-04-08T05:00:33.689Z,12.73
2023-04-08T05:03:00.636Z,12.18
2023-04-08T05:05:27.622Z,12.43
2023-04-08T05:07:54.555Z,12.05
2023-04-08T05:10:21.534Z,11.23
2023-04-08T05:12:48.373Z,11.23
2023-04-08T05:15:15.812Z,11.60
2023-04-08T05:17:42.731Z,11.48
2023-04-08T05:20:09.844Z,12.07
2023-04-08T05:22:36.919Z,11.43
2023-04-08T05:25:04.394Z,11.80
2023-04-08T05:27:31.454Z,12.82
2023-04-08T05:29:58.324Z,12.38
2023-04-08T05:32:25.206Z,12.25
2023-04-08T05:34:51.991Z,13.60
2023-04-08T05:37:23.560Z,14.77
2023-04-08T05:39:50.696Z,16.42
2023-04-08T05:42:17.457Z,16.63
2023-04-08T05:44:44.308Z,18.40
2023-04-08T05:47:11.522Z,19.08
2023-04-08T05:49:38.667Z,19.38
2023-04-08T05:52:05.657Z,17.98
2023-04-08T05:54:32.709Z,17.38
2023-04-08T05:56:59.519Z,17.67
2023-04-08T05:59:26.359Z,18.58
2023-04-08T06:01:54.700Z,20.15
2023-04-08T06:04:24.240Z,18.65
2023-04-08T06:06:51.175Z,17.52
2023-04-08T06:09:17.963Z,16.27
2023-04-08T06:11:47.273Z,17.17
2023-04-08T06:14:14.361Z,15.38
2023-04-08T06:16:41.277Z,14.57
2023-04-08T06:19:08.102Z,15.30
2023-04-08T06:21:34.890Z,13.73
2023-04-08T06:24:01.742Z,13.32
2023-04-08T06:26:28.592Z,12.73
2023-04-08T06:28:55.760Z,13.48
2023-04-08T06:31:24.908Z,14.60
2023-04-08T06:33:52.500Z,13.20
2023-04-08T06:36:19.416Z,13.15
2023-04-08T06:38:46.212Z,13.10
2023-04-08T06:41:13.115Z,12.80
2023-04-08T06:43:39.982Z,11.90
2023-04-08T06:46:09.430Z,12.60
2023-04-08T06:48:37.816Z,11.30
2023-04-08T06:51:04.895Z,12.68
2023-04-08T06:53:33.400Z,11.27
2023-04-08T06:56:00.862Z,11.88
2023-04-08T06:58:27.675Z,11.82
2023-04-08T07:00:55.998Z,11.98
2023-04-08T07:03:23.474Z,12.57
2023-04-08T07:05:50.554Z,10.63
2023-04-08T07:08:17.394Z,10.38
2023-04-08T07:10:44.795Z,10.45
2023-04-08T07:13:12.256Z,9.75
2023-04-08T07:15:39.077Z,9.52
2023-04-08T07:18:06.191Z,10.20
2023-04-08T07:29:12.688Z,11.80
2023-04-08T07:31:39.450Z,10.77
2023-04-08T07:34:06.250Z,11.18
2023-04-08T07:36:35.773Z,10.70
2023-04-08T07:39:03.492Z,9.85
2023-04-08T07:41:30.785Z,10.45
2023-04-08T07:43:57.948Z,10.90
2023-04-08T07:46:24.994Z,9.90
2023-04-08T07:48:52.242Z,8.95
2023-04-08T07:51:20.636Z,10.00
2023-04-08T07:53:48.097Z,9.15
2023-04-08T07:56:16.198Z,9.27
2023-04-08T07:58:43.422Z,9.48
2023-04-08T08:01:21.948Z,8.75
2023-04-08T08:03:49.835Z,8.40
2023-04-08T08:06:17.078Z,10.82
2023-04-08T08:08:46.306Z,11.00
2023-04-08T08:11:13.613Z,10.15
2023-04-08T08:13:40.510Z,9.82
2023-04-08T08:16:09.260Z,9.27
2023-04-08T08:18:42.163Z,9.77
2023-04-08T08:21:09.745Z,9.40
2023-04-08T08:23:37.892Z,11.00
2023-04-08T08:26:12.148Z,12.75
2023-04-08T08:28:39.752Z,10.35
2023-04-08T08:31:07.004Z,9.40
2023-04-08T08:33:34.315Z,10.05
2023-04-08T08:36:01.321Z,10.60
2023-04-08T08:38:28.301Z,11.20
2023-04-08T08:40:56.397Z,10.63
2023-04-08T08:43:24.430Z,10.88
2023-04-08T08:45:51.444Z,10.90
2023-04-08T08:48:18.297Z,10.13
2023-04-08T08:50:45.749Z,12.02
2023-04-08T08:53:13.133Z,11.13
2023-04-08T08:56:05.817Z,9.50
2023-04-08T08:58:28.649Z,9.77
2023-04-08T09:00:55.650Z,9.80
2023-04-08T09:03:28.303Z,11.35
2023-04-08T09:05:58.822Z,11.18
2023-04-08T09:08:33.594Z,11.10
2023-04-08T09:11:16.782Z,10.27
2023-04-08T09:13:45.140Z,10.95
2023-04-08T09:16:20.042Z,11.32
2023-04-08T09:18:49.115Z,10.73
2023-04-08T09:21:17.685Z,12.15
2023-04-08T09:23:52.584Z,11.27
2023-04-08T09:26:22.299Z,9.95
2023-04-08T09:29:24.400Z,11.27
2023-04-08T09:31:57.529Z,12.05
2023-04-08T09:34:25.280Z,10.98
2023-04-08T09:36:53.273Z,11.10
2023-04-08T09:39:20.489Z,10.98
2023-04-08T09:41:51.800Z,10.68
2023-04-08T09:44:22.161Z,10.82
2023-04-08T09:46:52.860Z,10.73
2023-04-08T09:49:25.642Z,9.65
2023-04-08T09:52:08.303Z,11.50
2023-04-08T09:55:00.682Z,11.65
2023-04-08T10:00:11.429Z,11.38
2023-04-08T10:02:59.583Z,11.20
2023-04-08T10:05:27.359Z,10.98
2023-04-08T10:07:56.344Z,12.15
2023-04-08T10:10:23.394Z,10.38
2023-04-08T10:12:50.500Z,10.43
2023-04-08T10:15:29.076Z,10.52
2023-04-08T10:18:20.414Z,11.07
2023-04-08T10:20:49.113Z,10.00
2023-04-08T10:23:17.779Z,9.25
2023-04-08T10:25:56.183Z,9.60
2023-04-08T10:28:23.560Z,9.98
2023-04-08T10:30:51.471Z,9.90
2023-04-08T10:33:19.434Z,10.00
2023-04-08T10:35:51.060Z,10.50
2023-04-08T10:40:46.038Z,10.32
2023-04-08T10:43:13.914Z,9.10
2023-04-08T10:45:41.880Z,9.07
2023-04-08T10:48:29.149Z,9.50
2023-04-08T10:50:56.989Z,9.38
2023-04-08T10:53:28.300Z,9.48
2023-04-08T10:56:05.035Z,9.77
2023-04-08T10:58:32.166Z,10.15
2023-04-08T11:01:07.157Z,10.50
2023-04-08T11:03:35.195Z,9.82
2023-04-08T11:06:02.596Z,10.38
2023-04-08T11:08:30.494Z,10.35
2023-04-08T11:10:58.709Z,9.57
2023-04-08T11:13:27.189Z,9.57
2023-04-08T11:15:54.706Z,9.48
2023-04-08T11:18:22.697Z,10.35
2023-04-08T11:20:53.434Z,9.90
2023-04-08T11:23:22.915Z,10.23
2023-04-08T11:25:50.001Z,10.65
2023-04-08T11:28:20.274Z,10.38
2023-04-08T11:30:48.604Z,9.60
2023-04-08T11:33:15.534Z,9.13
2023-04-08T11:35:44.028Z,8.75
2023-04-08T11:38:11.719Z,8.20
2023-04-08T11:40:38.927Z,9.00
2023-04-08T11:43:13.224Z,10.15
2023-04-08T11:45:40.714Z,10.52
2023-04-08T11:48:15.627Z,9.68
2023-04-08T11:50:43.279Z,9.35
2023-04-08T11:53:20.834Z,8.88
2023-04-08T11:55:48.809Z,9.57
2023-04-08T11:58:16.463Z,9.55
2023-04-08T12:00:43.966Z,9.85
2023-04-08T12:03:11.728Z,8.88
2023-04-08T12:05:38.722Z,9.77
2023-04-08T12:08:06.678Z,8.88
2023-04-08T12:10:33.631Z,9.05
2023-04-08T12:13:00.782Z,8.43
2023-04-08T12:15:27.697Z,8.68
2023-04-08T12:17:54.565Z,8.45
2023-04-08T12:20:21.444Z,8.63
2023-04-08T12:22:48.293Z,8.65
2023-04-08T12:25:15.434Z,8.30
2023-04-08T12:27:42.214Z,7.95
2023-04-08T12:30:09.685Z,9.75
2023-04-08T12:32:36.563Z,9.43
2023-04-08T12:35:03.535Z,9.00
2023-04-08T12:37:30.468Z,8.55
2023-04-08T12:39:57.280Z,8.63
2023-04-08T12:42:24.201Z,9.25
2023-04-08T12:44:51.191Z,9.18
2023-04-08T12:47:18.002Z,9.88
2023-04-08T12:49:49.249Z,9.75
2023-04-08T12:52:17.502Z,9.43
2023-04-08T12:54:44.824Z,8.30
2023-04-08T12:57:11.886Z,6.88
2023-04-08T12:59:40.072Z,6.80
2023-04-08T13:02:09.833Z,7.07
2023-04-08T13:04:36.730Z,6.88
2023-04-08T13:07:04.547Z,6.95
2023-04-08T13:09:31.552Z,7.50
2023-04-08T13:11:58.538Z,7.40
2023-04-08T13:14:25.729Z,6.97
2023-04-08T13:16:52.713Z,7.63
2023-04-08T13:19:19.647Z,7.40
2023-04-08T13:21:46.597Z,7.32
2023-04-08T13:24:13.436Z,7.68
2023-04-08T13:26:40.400Z,8.35
2023-04-08T13:29:07.327Z,7.80
2023-04-08T13:31:34.356Z,7.70
2023-04-08T13:34:01.320Z,7.60
2023-04-08T13:36:29.020Z,7.78
2023-04-08T13:38:56.616Z,7.85
2023-04-08T13:41:23.541Z,8.50
2023-04-08T13:43:51.073Z,8.68
2023-04-08T13:46:18.261Z,7.72
2023-04-08T13:48:46.029Z,8.32
2023-04-08T13:51:12.913Z,8.35
2023-04-08T13:53:39.728Z,7.25
2023-04-08T13:56:06.845Z,7.35
2023-04-08T13:58:33.817Z,7.30
2023-04-08T14:01:00.709Z,7.90
2023-04-08T14:03:28.194Z,7.57
2023-04-08T14:05:55.152Z,8.20
2023-04-08T14:08:25.682Z,8.20
2023-04-08T14:10:53.779Z,8.10
2023-04-08T14:13:20.954Z,8.48
2023-04-08T14:15:48.235Z,8.75
2023-04-08T14:18:17.607Z,8.00
2023-04-08T14:20:44.529Z,8.32
2023-04-08T14:23:13.551Z,8.05
2023-04-08T14:25:40.987Z,7.75
2023-04-08T14:28:08.242Z,6.80
2023-04-08T14:30:37.890Z,7.03
2023-04-08T14:33:07.765Z,7.63
2023-04-08T14:35:35.105Z,7.63
2023-04-08T14:38:02.002Z,8.00
2023-04-08T14:40:31.126Z,8.50
2023-04-08T14:42:58.015Z,7.63
2023-04-08T14:45:24.836Z,7.57
2023-04-08T14:47:51.744Z,7.68
2023-04-08T14:50:19.538Z,6.90
2023-04-08T14:52:48.552Z,8.27
2023-04-08T14:55:15.610Z,7.93
2023-04-08T14:57:42.623Z,8.18
2023-04-08T15:00:10.112Z,8.10
2023-04-08T15:02:37.190Z,6.80
2023-04-08T15:05:04.619Z,6.78
2023-04-08T15:07:32.079Z,6.53
2023-04-08T15:09:58.876Z,6.60
2023-04-08T15:12:25.811Z,6.47
2023-04-08T15:14:52.689Z,7.22
2023-04-08T15:17:19.643Z,8.40
2023-04-08T15:19:46.867Z,7.32
2023-04-08T15:22:13.881Z,6.38
2023-04-08T15:24:41.094Z,6.53
2023-04-08T15:27:08.016Z,6.28
2023-04-08T15:29:35.053Z,6.30
2023-04-08T15:32:02.057Z,6.30
2023-04-08T15:34:28.940Z,6.97
2023-04-08T15:36:58.610Z,6.70
2023-04-08T15:39:25.600Z,6.53
2023-04-08T15:41:55.205Z,6.18
2023-04-08T15:44:22.561Z,6.30
2023-04-08T15:46:49.391Z,6.35
2023-04-08T15:49:16.804Z,6.43
2023-04-08T15:51:44.813Z,6.28
2023-04-08T15:54:11.934Z,6.93
2023-04-08T15:56:38.819Z,6.28
2023-04-08T15:59:05.772Z,6.35
2023-04-08T16:01:33.390Z,6.80
2023-04-08T16:04:01.049Z,6.20
2023-04-08T16:06:28.064Z,7.07
2023-04-08T16:08:56.835Z,8.88
2023-04-08T16:11:25.287Z,10.50
2023-04-08T16:13:52.755Z,8.68
2023-04-08T16:16:19.928Z,10.57
2023-04-08T16:18:47.604Z,14.60
2023-04-08T16:21:14.644Z,16.42
2023-04-08T16:23:41.663Z,14.40
2023-04-08T16:26:10.991Z,11.55
2023-04-08T16:28:39.987Z,9.25
2023-04-08T16:31:07.177Z,8.45
2023-04-08T16:33:34.076Z,11.20
2023-04-08T16:36:04.436Z,11.43
2023-04-08T16:38:31.313Z,9.73
2023-04-08T16:40:58.873Z,9.48
2023-04-08T16:43:26.188Z,8.85
2023-04-08T16:45:53.626Z,9.10
2023-04-08T16:48:20.820Z,8.40
2023-04-08T16:50:49.376Z,9.07
2023-04-08T16:53:16.304Z,8.98
2023-04-08T16:55:43.145Z,8.40
2023-04-08T16:58:10.020Z,8.75
2023-04-08T17:00:36.863Z,8.55
2023-04-08T17:03:04.025Z,8.55
2023-04-08T17:05:31.025Z,9.13
2023-04-08T17:07:57.893Z,9.30
2023-04-08T17:10:24.894Z,9.23
2023-04-08T17:12:51.766Z,9.63
2023-04-08T17:15:21.130Z,11.02
2023-04-08T17:17:48.659Z,11.00
2023-04-08T17:20:15.813Z,11.02
2023-04-08T17:22:42.711Z,9.77
2023-04-08T17:25:10.043Z,10.15
2023-04-08T17:27:37.024Z,9.93
2023-04-08T17:30:04.166Z,10.57
2023-04-08T17:32:31.007Z,11.30
2023-04-08T17:34:57.831Z,10.95
2023-04-08T17:37:26.839Z,11.30
2023-04-08T17:39:53.664Z,11.00
2023-04-08T17:42:22.851Z,11.68
2023-04-08T17:44:49.907Z,11.55
2023-04-08T17:47:16.877Z,11.57
2023-04-08T17:49:43.704Z,13.05
2023-04-08T17:52:10.498Z,12.07
2023-04-08T17:54:37.531Z,14.57
2023-04-08T17:57:07.420Z,15.70
2023-04-08T17:59:34.232Z,15.35
2023-04-08T18:02:01.443Z,17.00
2023-04-08T18:04:29.976Z,18.02
2023-04-08T18:07:01.175Z,18.70
2023-04-08T18:09:29.536Z,21.00
2023-04-08T18:11:59.916Z,25.95
2023-04-08T18:14:29.670Z,22.30
2023-04-08T18:19:29.341Z,21.70
2023-04-08T18:21:56.131Z,18.45
2023-04-08T18:24:23.292Z,19.92
2023-04-08T18:27:01.313Z,22.23
2023-04-08T18:29:31.546Z,23.73
2023-04-08T18:31:59.113Z,22.45
2023-04-08T18:34:26.792Z,25.00
2023-04-08T18:36:53.652Z,25.27
2023-04-08T18:39:20.502Z,23.73
2023-04-08T18:41:47.349Z,25.15
2023-04-08T18:44:14.205Z,24.67
2023-04-08T18:46:41.152Z,24.90
2023-04-08T18:49:07.981Z,26.00
2023-04-08T18:51:34.856Z,24.52
2023-04-08T18:54:01.962Z,25.88
2023-04-08T18:56:28.851Z,26.75
2023-04-08T18:58:55.723Z,25.50
2023-04-08T19:01:22.541Z,25.50
2023-04-08T19:03:49.776Z,23.40
2023-04-08T19:06:17.520Z,22.83
2023-04-08T19:08:45.494Z,21.85
2023-04-08T19:11:13.304Z,20.67
2023-04-08T19:13:40.262Z,21.90
2023-04-08T19:16:07.451Z,21.48
2023-04-08T19:18:34.448Z,20.95
2023-04-08T19:21:01.429Z,20.70
2023-04-08T19:23:28.341Z,21.63
2023-04-08T19:25:55.351Z,23.23
2023-04-08T19:28:22.115Z,23.55
2023-04-08T19:30:50.854Z,24.17
2023-04-08T19:33:17.927Z,23.80
2023-04-08T19:35:44.720Z,24.48
2023-04-08T19:38:12.129Z,24.30
2023-04-08T19:40:40.512Z,25.10
2023-04-08T19:43:07.335Z,25.15
2023-04-08T19:45:34.526Z,26.70
2023-04-08T19:48:01.482Z,27.13
2023-04-08T19:50:28.281Z,28.15
2023-04-08T19:52:55.047Z,26.90
2023-04-08T19:55:21.996Z,27.23
2023-04-08T19:57:48.894Z,26.13
2023-04-08T20:00:15.810Z,26.35
2023-04-08T20:02:42.850Z,25.15
2023-04-08T20:05:14.914Z,25.73
2023-04-08T20:07:42.594Z,28.08
2023-04-08T20:10:12.506Z,28.50
2023-04-08T20:12:40.911Z,31.13
2023-04-08T20:15:13.604Z,36.55
2023-04-08T20:17:46.383Z,31.70
2023-04-08T20:20:13.462Z,34.85
2023-04-08T20:22:40.451Z,33.63
2023-04-08T20:25:07.334Z,32.05
2023-04-08T20:31:21.585Z,37.65
2023-04-08T20:33:50.006Z,39.63
2023-04-08T20:36:17.010Z,39.92
2023-04-08T20:38:46.363Z,41.71
2023-04-08T20:41:18.337Z,38.58
2023-04-08T20:43:45.280Z,37.75
2023-04-08T20:46:12.114Z,40.28
2023-04-08T20:48:39.338Z,39.42
2023-04-08T20:51:06.615Z,41.45
2023-04-08T20:53:34.593Z,39.45
2023-04-08T20:56:04.322Z,39.03
2023-04-08T20:58:31.374Z,39.38
2023-04-08T21:00:59.250Z,38.53
2023-04-08T21:03:26.986Z,37.47
2023-04-08T21:05:55.578Z,37.88
2023-04-08T21:08:22.587Z,38.05
2023-04-08T21:10:49.478Z,38.88
2023-04-08T21:13:16.258Z,37.30
2023-04-08T21:15:43.129Z,37.75
2023-04-08T21:18:11.177Z,38.22
2023-04-08T21:20:40.838Z,38.97
2023-04-08T21:23:07.821Z,40.80
2023-04-08T21:25:34.669Z,40.33
2023-04-08T21:28:01.629Z,41.70
2023-04-08T21:30:28.529Z,43.05
2023-04-08T21:32:55.466Z,41.88
2023-04-08T21:35:23.865Z,43.08
2023-04-08T21:37:51.140Z,41.42
2023-04-08T21:40:20.319Z,42.45
2023-04-08T21:42:47.115Z,43.30
2023-04-08T21:45:15.272Z,43.03
2023-04-08T21:47:42.113Z,42.40
2023-04-08T21:50:11.580Z,42.10
2023-04-08T21:52:38.399Z,42.55
2023-04-08T21:55:06.589Z,43.47
2023-04-08T21:57:33.415Z,45.65
2023-04-08T22:00:00.394Z,46.10
2023-04-08T22:02:27.702Z,46.33
2023-04-08T22:04:54.627Z,47.88
2023-04-08T22:07:21.805Z,48.13
2023-04-08T22:09:50.854Z,45.85
2023-04-08T22:12:17.699Z,46.63
2023-04-08T22:14:44.617Z,46.95
2023-04-08T22:17:11.490Z,49.70
2023-04-08T22:19:38.409Z,48.25
2023-04-08T22:22:05.392Z,48.20
2023-04-08T22:24:34.667Z,48.58
2023-04-08T22:27:04.077Z,49.33
2023-04-08T22:29:31.111Z,48.25
2023-04-08T22:31:57.983Z,48.83
2023-04-08T22:34:24.898Z,46.38
2023-04-08T22:36:51.709Z,44.83
2023-04-08T22:39:18.503Z,46.83
2023-04-08T22:41:46.763Z,47.83
2023-04-08T22:44:13.631Z,44.63
2023-04-08T22:46:40.637Z,43.97
2023-04-08T22:49:07.536Z,43.03
2023-04-08T22:51:34.437Z,43.85
2023-04-08T22:54:01.347Z,44.45
2023-04-08T22:56:28.855Z,43.35
2023-04-08T22:58:57.928Z,43.80
2023-04-08T23:01:24.785Z,42.83
2023-04-08T23:03:51.953Z,42.40
2023-04-08T23:06:18.921Z,42.85
2023-04-08T23:08:46.138Z,42.22
2023-04-08T23:11:12.968Z,42.50
2023-04-08T23:13:39.869Z,42.55
2023-04-08T23:16:09.926Z,43.38
2023-04-08T23:18:36.908Z,42.75
2023-04-08T23:21:06.748Z,41.30
2023-04-08T23:23:33.660Z,43.00
2023-04-08T23:26:00.721Z,40.88
2023-04-08T23:28:27.625Z,40.50
2023-04-08T23:30:54.469Z,39.00
2023-04-08T23:33:21.333Z,39.28
2023-04-08T23:35:48.361Z,40.17
2023-04-08T23:38:15.548Z,40.88
2023-04-08T23:40:42.416Z,38.13
2023-04-08T23:43:09.338Z,33.13
2023-04-08T23:45:38.418Z,31.20
2023-04-08T23:48:07.795Z,28.27
2023-04-08T23:50:36.409Z,27.70
2023-04-08T23:53:03.354Z,30.90
2023-04-08T23:55:32.446Z,30.70
2023-04-08T23:57:59.338Z,29.20
